Flight Track Log - Related Links

Times and Time Zones

All times are in EDT time to prevent confusion due to time zone crossing. See the DAL1670 flight status page for this flight to view local times or setup timezone preferences in your user account.

Time Position Orientation Groundspeed Altitude Reporting Facility
EDT Latitude Longitude Course Direction KTS MPH feet Rate Location/Type
Mon 10:29:00 AM 32.9333 -80.3757 270° West  Level FlightAware Approximate
Mon 10:29:27 AM 32.8036 -80.1864 257° West 259 298 7,000  Level Jacksonville Center
Mon 10:30:00 AM 32.9333 -80.5022 270° West  Level FlightAware Approximate
Mon 10:30:27 AM 32.8178 -80.2700 281° West 259 298 9,900  Level Jacksonville Center
Mon 10:31:00 AM 32.9435 -80.6280 276° West  Level FlightAware Approximate
Mon 10:31:27 AM 32.8117 -80.3714 266° West 278 320 10,900  Level Jacksonville Center
Mon 10:32:00 AM 32.9549 -80.7537 276° West  Level FlightAware Approximate
Mon 10:32:27 AM 32.8033 -80.4853 265° West 320 368 13,400  Level Jacksonville Center
Mon 10:33:00 AM 32.9658 -80.8740 276° West  Level FlightAware Approximate
Mon 10:33:27 AM 32.7931 -80.6067 264° West 351 404 16,200  Level Jacksonville Center
Mon 10:34:00 AM 32.9450 -80.9919 257° West  Level FlightAware Approximate
Mon 10:34:28 AM 32.7808 -80.7356 264° West 361 415 18,400  Level Jacksonville Center
Mon 10:35:27 AM 32.7681 -80.8594 263° West 373 429 20,100 1,513 Climbing Jacksonville Center
Mon 10:36:27 AM 32.7556 -80.9856 263° West 385 443 21,400 942 Climbing Jacksonville Center
Mon 10:37:28 AM 32.7428 -81.1242 264° West 399 459 22,000 300 Climbing Jacksonville Center
Mon 10:38:27 AM 32.7300 -81.2603 264° West 414 476 22,000  Level Jacksonville Center
Mon 10:39:27 AM 32.7150 -81.3964 263° West 419 482 22,000  Level Jacksonville Center
Mon 10:41:43 AM 32.6842 -81.6819 263° West 406 467 22,000  Level Atlanta Center
Mon 10:42:43 AM 32.6719 -81.8181 264° West 413 475 22,000  Level Atlanta Center
Mon 10:43:43 AM 32.6558 -81.9714 263° West 423 487 22,000  Level Atlanta Center
Mon 10:44:43 AM 32.6433 -82.0900 263° West 423 487 22,000  Level Atlanta Center
Mon 10:45:43 AM 32.6269 -82.2408 263° West 432 497 22,000  Level Atlanta Center
Mon 10:46:43 AM 32.6139 -82.3694 263° West 420 483 22,000  Level Atlanta Center
Mon 10:47:43 AM 32.6011 -82.4953 263° West 399 459 22,000  Level Atlanta Center
Mon 10:48:43 AM 32.5858 -82.6139 261° West 386 444 22,000  Level Atlanta Center
Mon 10:49:43 AM 32.5747 -82.7350 264° West 379 436 22,000  Level Atlanta Center
Mon 10:50:43 AM 32.5819 -82.8556 274° West 359 413 22,000  Level Atlanta Center
Mon 10:51:43 AM 32.6478 -82.9558 308° West 368 423 22,000  Level Atlanta Center
Mon 10:52:43 AM 32.7133 -83.0564 308° West 373 429 22,000  Level Atlanta Center
Mon 10:53:43 AM 32.7828 -83.1567 309° West 386 444 22,000  Level Atlanta Center
Mon 10:54:43 AM 32.8483 -83.2575 308° West 386 444 22,000 -350 Level Atlanta Center
Mon 10:55:43 AM 32.9156 -83.3583 308° West 393 452 21,300 -1,250 Descending Atlanta Center
Mon 10:56:43 AM 32.9831 -83.4594 309° West 387 445 19,500 -1,750 Descending Atlanta Center
Mon 10:57:43 AM 33.0461 -83.5556 308° West 387 445 17,800 -1,700 Descending Atlanta Center
Mon 10:58:43 AM 33.1089 -83.6469 309° West 373 429 16,100 -1,914 Descending Atlanta Center
Mon 10:59:39 AM 33.1667 -83.7333 309° West 356 410 14,100 -1,086 Descending Atlanta TRACON
Mon 11:00:39 AM 33.2333 -83.8167 314° West 350 403 14,000 -339 Descending Atlanta TRACON
Mon 11:01:43 AM 33.2892 -83.9194 303° West 352 405 13,400 -774 Descending Atlanta Center
Mon 11:02:43 AM 33.3497 -84.0089 309° West 347 399 12,400 -700 Descending Atlanta Center
Mon 11:03:43 AM 33.4039 -84.0986 306° West 347 399 12,000 -200 Descending Atlanta Center
Mon 11:04:43 AM 33.4581 -84.1783 309° West 330 380 12,000  Level Atlanta Center
Mon 11:05:43 AM 33.5081 -84.2531 309° West 299 344 12,000 -295 Level Atlanta Center
Mon 11:06:45 AM 33.5500 -84.3333 302° West 280 322 11,400 -1,082 Descending Atlanta TRACON
Mon 11:07:45 AM 33.5500 -84.4167 270° West 281 323 9,800 -1,684 Descending Atlanta TRACON
Mon 11:08:39 AM 33.5500 -84.5000 270° West 268 308 8,200 -1,611 Descending Atlanta TRACON
Mon 11:09:33 AM 33.5500 -84.5833 270° West 262 302 6,900 -1,550 Descending Atlanta TRACON
Mon 11:10:39 AM 33.5500 -84.6833 270° West 258 297 5,100 -1,429 Descending Atlanta TRACON
Mon 11:11:39 AM 33.5500 -84.7667 270° West 249 287 3,900 -950 Descending Atlanta TRACON
Mon 11:12:39 AM 33.6000 -84.7667 360° North 233 268 3,200 -450 Descending Atlanta TRACON
Mon 11:13:39 AM 33.6167 -84.7000 73° East 216 249 3,000 -200 Descending Atlanta TRACON

Login

Don't have an account? Register now (free) for customized features, flight alerts, and more!